Kirkby — S6NR — position and weather

sailwx.info

Track history (hours):
 
Tides and Currents Weather Stations Pressure Air Temp Water Temp Dewpoint Dewpoint Depression Visibility Wind Speed Wind Dir Waves Ship Positions

Kirkby

Last reported at 2017-Nov-20 00:18 UTC. Time now 2017-Nov-24 16:37 UTC.
Position N 58°28' E 004°39'.

Length 120 m; draft 5.9 m.

Type: Ship (hazmat cat A). MMSI: 566813000.

Date/timePositionNaut miles runAvg speedWind from/ knotsBaromVisibWave heightAir tempDewpointWater temp
2017-Nov-20 00:18N 58°28' E 004°39'413.9
2017-Nov-20 00:00N 58°32' E 004°42'713.8
2017-Nov-19 23:30N 58°38' E 004°48'713.8
2017-Nov-19 23:00N 58°44' E 004°53'713.6
2017-Nov-19 22:30N 58°50' E 004°59'713.2
2017-Nov-19 22:00N 58°56' E 005°05'713.5
2017-Nov-19 21:30N 59°02' E 005°10'714.1
2017-Nov-19 21:00N 59°06' E 005°22'611.7
2017-Nov-19 20:30N 59°10' E 005°30'610.8
2017-Nov-19 20:00N 59°15' E 005°30'1 2.4
2017-Nov-19 19:30N 59°16' E 005°30'0 0.0
2017-Nov-19 19:00N 59°16' E 005°30'0 0.0
2017-Nov-19 18:30N 59°16' E 005°30'0 0.0
2017-Nov-19 18:00N 59°16' E 005°30'0 0.0
2017-Nov-19 17:30N 59°16' E 005°30'0 0.0
2017-Nov-19 16:57N 59°16' E 005°30'0 0.0
2017-Nov-19 16:30N 59°16' E 005°30'0 0.0
2017-Nov-19 16:00N 59°16' E 005°30'0 0.0
2017-Nov-19 15:30N 59°16' E 005°30'0 0.0
2017-Nov-19 15:00N 59°16' E 005°30'0 0.0
2017-Nov-19 14:30N 59°16' E 005°30'0 0.0
2017-Nov-19 14:00N 59°16' E 005°30'0 0.0
2017-Nov-19 13:30N 59°16' E 005°30'0 0.0
2017-Nov-19 13:00N 59°16' E 005°30'0 0.0
2017-Nov-19 12:30N 59°16' E 005°30'0 0.0
2017-Nov-19 12:00N 59°16' E 005°30'0 0.0
2017-Nov-19 11:30N 59°16' E 005°30'0 0.0
2017-Nov-19 11:00N 59°16' E 005°30'0 0.0
2017-Nov-19 10:30N 59°16' E 005°30'0 0.0
2017-Nov-19 10:00N 59°16' E 005°30'0 0.0
2017-Nov-19 09:30N 59°16' E 005°30'0 0.0
2017-Nov-19 09:00N 59°16' E 005°30'0 0.3
2017-Nov-19 08:30N 59°16' E 005°30'3 6.3
2017-Nov-19 08:00N 59°13' E 005°32'611.1
2017-Nov-19 07:30N 59°08' E 005°29'3 6.1
2017-Nov-19 07:00N 59°06' E 005°25'4 7.1
2017-Nov-19 06:30N 59°04' E 005°19'611.6
2017-Nov-19 06:00N 59°02' E 005°09'510.1
2017-Nov-19 05:30N 58°57' E 005°07'510.0
2017-Nov-19 05:00N 58°51' E 005°06'5 9.5
2017-Nov-19 04:30N 58°47' E 005°07'5 9.1
2017-Nov-19 04:00N 58°42' E 005°06'4 8.7
2017-Nov-19 03:30N 58°38' E 005°05'4 8.9
2017-Nov-19 03:00N 58°34' E 005°03'4 8.8
2017-Nov-19 02:30N 58°29' E 005°00'4 7.6
2017-Nov-19 01:59N 58°26' E 004°59'330 9.9
2017-Nov-17 16:45N 52°56' E 004°18'414.8
2017-Nov-17 16:30N 52°53' E 004°16'4713.5
2017-Nov-17 13:04N 52°12' E 003°40'114.2
2017-Nov-17 13:00N 52°11' E 003°40'3 5.5
2017-Nov-17 12:26N 52°08' E 003°40'0 0.0
2017-Nov-17 08:50N 52°08' E 003°39'0 0.0
2017-Nov-17 02:11N 52°08' E 003°40'0 0.0
2017-Nov-17 01:20N 52°08' E 003°40'0 0.1
2017-Nov-17 00:56N 52°08' E 003°40'0 0.0
2017-Nov-16 16:05N 52°08' E 003°40'0 0.0
2017-Nov-16 14:29N 52°08' E 003°40'0 0.0
2017-Nov-16 13:44N 52°08' E 003°40'0 0.0
2017-Nov-16 13:26N 52°08' E 003°40'0 0.0
2017-Nov-16 10:47N 52°08' E 003°40'0 0.0
2017-Nov-16 10:29N 52°08' E 003°39'0 0.0
2017-Nov-16 03:44N 52°08' E 003°40'0 0.0
2017-Nov-16 01:20N 52°08' E 003°40'0 0.0
2017-Nov-15 23:08N 52°08' E 003°40'0 0.0
2017-Nov-15 22:35N 52°08' E 003°40'0 0.0
2017-Nov-15 22:29N 52°08' E 003°40'0 0.0
2017-Nov-15 21:56N 52°08' E 003°39'0 0.1
2017-Nov-15 20:20N 52°08' E 003°39'0 0.0
2017-Nov-15 19:56N 52°08' E 003°39'0 0.0
2017-Nov-15 19:29N 52°08' E 003°39'0 0.1
2017-Nov-15 18:44N 52°08' E 003°39'0 0.1
2017-Nov-15 18:29N 52°08' E 003°39'0 0.0
2017-Nov-15 14:56N 52°08' E 003°40'0 0.0
2017-Nov-15 13:47N 52°08' E 003°40'0 0.0
2017-Nov-15 13:23N 52°08' E 003°40'0 0.0
2017-Nov-15 12:56N 52°08' E 003°40'0 0.0
2017-Nov-15 12:17N 52°08' E 003°40'0 0.0
2017-Nov-15 11:59N 52°08' E 003°40'0 0.0
2017-Nov-15 11:29N 52°08' E 003°40'0 0.0
2017-Nov-15 10:47N 52°08' E 003°40'0 0.0
2017-Nov-15 03:26N 52°08' E 003°40'0 0.0
2017-Nov-15 02:35N 52°08' E 003°40'0 0.0
2017-Nov-15 02:29N 52°08' E 003°40'0 0.0
2017-Nov-15 01:59N 52°08' E 003°40'0 0.0
2017-Nov-15 01:20N 52°08' E 003°40'0 0.0
2017-Nov-15 00:50N 52°08' E 003°40'0 0.0
2017-Nov-15 00:29N 52°08' E 003°40'0 0.0
2017-Nov-14 23:59N 52°08' E 003°40'0 0.0
2017-Nov-14 22:17N 52°08' E 003°40'0 0.1
2017-Nov-14 21:53N 52°08' E 003°40'0 0.0
2017-Nov-14 21:26N 52°08' E 003°40'0 0.0
2017-Nov-14 19:11N 52°08' E 003°40'0 0.0
2017-Nov-14 18:59N 52°08' E 003°40'0 0.1
2017-Nov-14 18:29N 52°08' E 003°39'0 0.0
2017-Nov-14 17:56N 52°08' E 003°39'0 0.1
2017-Nov-14 17:29N 52°08' E 003°39'0 0.1
2017-Nov-14 16:59N 52°08' E 003°40'0 0.0
2017-Nov-14 14:50N 52°08' E 003°40'0 0.0
2017-Nov-14 14:02N 52°08' E 003°40'0 0.0
2017-Nov-14 13:56N 52°08' E 003°40'0 0.0
2017-Nov-14 13:11N 52°08' E 003°40'0 0.0
2017-Nov-14 09:23N 52°08' E 003°40'0 0.0
2017-Nov-14 05:23N 52°08' E 003°40'0 0.0
2017-Nov-14 03:02N 52°08' E 003°40'0 0.1
2017-Nov-14 02:56N 52°08' E 003°40'0 0.0
2017-Nov-14 02:29N 52°08' E 003°40'0 0.1
2017-Nov-14 01:56N 52°08' E 003°40'0 0.0
2017-Nov-14 01:29N 52°08' E 003°40'0 0.0
2017-Nov-14 00:59N 52°08' E 003°40'0 0.0
2017-Nov-14 00:29N 52°08' E 003°40'0 0.0
2017-Nov-13 23:53N 52°08' E 003°40'0 0.0
2017-Nov-13 23:29N 52°08' E 003°40'0 0.0
2017-Nov-12 17:40N 52°07' E 003°40'0 0.0
2017-Nov-12 17:10N 52°07' E 003°40'0 0.1
2017-Nov-12 16:49N 52°07' E 003°40'0 0.0
2017-Nov-12 13:04N 52°08' E 003°40'0 0.0
2017-Nov-12 10:01N 52°08' E 003°40'0 0.0
2017-Nov-11 18:21N 52°08' E 003°40'0 0.0
2017-Nov-11 05:03N 52°08' E 003°40'0 0.0
2017-Nov-11 04:39N 52°08' E 003°40'0 0.2
2017-Nov-11 04:27N 52°08' E 003°40'0 0.0
2017-Nov-11 03:57N 52°08' E 003°40'0 0.0
2017-Nov-11 03:30N 52°08' E 003°40'0 0.0
2017-Nov-11 03:00N 52°08' E 003°40'0 0.0
2017-Nov-11 02:15N 52°08' E 003°40'0 0.1
2017-Nov-11 02:00N 52°08' E 003°40'0 0.0
2017-Nov-11 01:31N 52°08' E 003°40'0 0.0
2017-Nov-10 14:00N 52°08' E 003°39'0 0.1
2017-Nov-10 12:14N 52°08' E 003°40'0 0.1
2017-Nov-10 11:56N 52°08' E 003°40'0 0.1
2017-Nov-10 11:29N 52°08' E 003°40'0 0.1
2017-Nov-10 10:59N 52°08' E 003°40'0 0.0
2017-Nov-10 10:23N 52°08' E 003°40'0 0.0
2017-Nov-10 09:59N 52°08' E 003°40'0 0.0
2017-Nov-10 09:29N 52°08' E 003°40'  
Track history (hours):
 
Tides and Currents Weather Stations Pressure Air Temp Water Temp Dewpoint Dewpoint Depression Visibility Wind Speed Wind Dir Waves Ship Positions

Kirkby

Last reported at 2017-Nov-20 00:18 UTC. Time now 2017-Nov-24 16:37 UTC.
Position N 58°28' E 004°39'.

Length 120 m; draft 5.9 m.

Type: Ship (hazmat cat A). MMSI: 566813000.

Date/timePositionNaut miles runAvg speedWind from/ knotsBaromVisibWave heightAir tempDewpointWater temp
2017-Nov-20 00:18N 58°28' E 004°39'413.9
2017-Nov-20 00:00N 58°32' E 004°42'713.8
2017-Nov-19 23:30N 58°38' E 004°48'713.8
2017-Nov-19 23:00N 58°44' E 004°53'713.6
2017-Nov-19 22:30N 58°50' E 004°59'713.2
2017-Nov-19 22:00N 58°56' E 005°05'713.5
2017-Nov-19 21:30N 59°02' E 005°10'714.1
2017-Nov-19 21:00N 59°06' E 005°22'611.7
2017-Nov-19 20:30N 59°10' E 005°30'610.8
2017-Nov-19 20:00N 59°15' E 005°30'1 2.4
2017-Nov-19 19:30N 59°16' E 005°30'0 0.0
2017-Nov-19 19:00N 59°16' E 005°30'0 0.0
2017-Nov-19 18:30N 59°16' E 005°30'0 0.0
2017-Nov-19 18:00N 59°16' E 005°30'0 0.0
2017-Nov-19 17:30N 59°16' E 005°30'0 0.0
2017-Nov-19 16:57N 59°16' E 005°30'0 0.0
2017-Nov-19 16:30N 59°16' E 005°30'0 0.0
2017-Nov-19 16:00N 59°16' E 005°30'0 0.0
2017-Nov-19 15:30N 59°16' E 005°30'0 0.0
2017-Nov-19 15:00N 59°16' E 005°30'0 0.0
2017-Nov-19 14:30N 59°16' E 005°30'0 0.0
2017-Nov-19 14:00N 59°16' E 005°30'0 0.0
2017-Nov-19 13:30N 59°16' E 005°30'0 0.0
2017-Nov-19 13:00N 59°16' E 005°30'0 0.0
2017-Nov-19 12:30N 59°16' E 005°30'0 0.0
2017-Nov-19 12:00N 59°16' E 005°30'0 0.0
2017-Nov-19 11:30N 59°16' E 005°30'0 0.0
2017-Nov-19 11:00N 59°16' E 005°30'0 0.0
2017-Nov-19 10:30N 59°16' E 005°30'0 0.0
2017-Nov-19 10:00N 59°16' E 005°30'0 0.0
2017-Nov-19 09:30N 59°16' E 005°30'0 0.0
2017-Nov-19 09:00N 59°16' E 005°30'0 0.3
2017-Nov-19 08:30N 59°16' E 005°30'3 6.3
2017-Nov-19 08:00N 59°13' E 005°32'611.1
2017-Nov-19 07:30N 59°08' E 005°29'3 6.1
2017-Nov-19 07:00N 59°06' E 005°25'4 7.1
2017-Nov-19 06:30N 59°04' E 005°19'611.6
2017-Nov-19 06:00N 59°02' E 005°09'510.1
2017-Nov-19 05:30N 58°57' E 005°07'510.0
2017-Nov-19 05:00N 58°51' E 005°06'5 9.5
2017-Nov-19 04:30N 58°47' E 005°07'5 9.1
2017-Nov-19 04:00N 58°42' E 005°06'4 8.7
2017-Nov-19 03:30N 58°38' E 005°05'4 8.9
2017-Nov-19 03:00N 58°34' E 005°03'4 8.8
2017-Nov-19 02:30N 58°29' E 005°00'4 7.6
2017-Nov-19 01:59N 58°26' E 004°59'330 9.9
2017-Nov-17 16:45N 52°56' E 004°18'414.8
2017-Nov-17 16:30N 52°53' E 004°16'4713.5
2017-Nov-17 13:04N 52°12' E 003°40'114.2
2017-Nov-17 13:00N 52°11' E 003°40'3 5.5
2017-Nov-17 12:26N 52°08' E 003°40'0 0.0
2017-Nov-17 08:50N 52°08' E 003°39'0 0.0
2017-Nov-17 02:11N 52°08' E 003°40'0 0.0
2017-Nov-17 01:20N 52°08' E 003°40'0 0.1
2017-Nov-17 00:56N 52°08' E 003°40'0 0.0
2017-Nov-16 16:05N 52°08' E 003°40'0 0.0
2017-Nov-16 14:29N 52°08' E 003°40'0 0.0
2017-Nov-16 13:44N 52°08' E 003°40'0 0.0
2017-Nov-16 13:26N 52°08' E 003°40'0 0.0
2017-Nov-16 10:47N 52°08' E 003°40'0 0.0
2017-Nov-16 10:29N 52°08' E 003°39'0 0.0
2017-Nov-16 03:44N 52°08' E 003°40'0 0.0
2017-Nov-16 01:20N 52°08' E 003°40'0 0.0
2017-Nov-15 23:08N 52°08' E 003°40'0 0.0
2017-Nov-15 22:35N 52°08' E 003°40'0 0.0
2017-Nov-15 22:29N 52°08' E 003°40'0 0.0
2017-Nov-15 21:56N 52°08' E 003°39'0 0.1
2017-Nov-15 20:20N 52°08' E 003°39'0 0.0
2017-Nov-15 19:56N 52°08' E 003°39'0 0.0
2017-Nov-15 19:29N 52°08' E 003°39'0 0.1
2017-Nov-15 18:44N 52°08' E 003°39'0 0.1
2017-Nov-15 18:29N 52°08' E 003°39'0 0.0
2017-Nov-15 14:56N 52°08' E 003°40'0 0.0
2017-Nov-15 13:47N 52°08' E 003°40'0 0.0
2017-Nov-15 13:23N 52°08' E 003°40'0 0.0
2017-Nov-15 12:56N 52°08' E 003°40'0 0.0
2017-Nov-15 12:17N 52°08' E 003°40'0 0.0
2017-Nov-15 11:59N 52°08' E 003°40'0 0.0
2017-Nov-15 11:29N 52°08' E 003°40'0 0.0
2017-Nov-15 10:47N 52°08' E 003°40'0 0.0
2017-Nov-15 03:26N 52°08' E 003°40'0 0.0
2017-Nov-15 02:35N 52°08' E 003°40'0 0.0
2017-Nov-15 02:29N 52°08' E 003°40'0 0.0
2017-Nov-15 01:59N 52°08' E 003°40'0 0.0
2017-Nov-15 01:20N 52°08' E 003°40'0 0.0
2017-Nov-15 00:50N 52°08' E 003°40'0 0.0
2017-Nov-15 00:29N 52°08' E 003°40'0 0.0
2017-Nov-14 23:59N 52°08' E 003°40'0 0.0
2017-Nov-14 22:17N 52°08' E 003°40'0 0.1
2017-Nov-14 21:53N 52°08' E 003°40'0 0.0
2017-Nov-14 21:26N 52°08' E 003°40'0 0.0
2017-Nov-14 19:11N 52°08' E 003°40'0 0.0
2017-Nov-14 18:59N 52°08' E 003°40'0 0.1
2017-Nov-14 18:29N 52°08' E 003°39'0 0.0
2017-Nov-14 17:56N 52°08' E 003°39'0 0.1
2017-Nov-14 17:29N 52°08' E 003°39'0 0.1
2017-Nov-14 16:59N 52°08' E 003°40'0 0.0
2017-Nov-14 14:50N 52°08' E 003°40'0 0.0
2017-Nov-14 14:02N 52°08' E 003°40'0 0.0
2017-Nov-14 13:56N 52°08' E 003°40'0 0.0
2017-Nov-14 13:11N 52°08' E 003°40'0 0.0
2017-Nov-14 09:23N 52°08' E 003°40'0 0.0
2017-Nov-14 05:23N 52°08' E 003°40'0 0.0
2017-Nov-14 03:02N 52°08' E 003°40'0 0.1
2017-Nov-14 02:56N 52°08' E 003°40'0 0.0
2017-Nov-14 02:29N 52°08' E 003°40'0 0.1
2017-Nov-14 01:56N 52°08' E 003°40'0 0.0
2017-Nov-14 01:29N 52°08' E 003°40'0 0.0
2017-Nov-14 00:59N 52°08' E 003°40'0 0.0
2017-Nov-14 00:29N 52°08' E 003°40'0 0.0
2017-Nov-13 23:53N 52°08' E 003°40'0 0.0
2017-Nov-13 23:29N 52°08' E 003°40'0 0.0
2017-Nov-12 17:40N 52°07' E 003°40'0 0.0
2017-Nov-12 17:10N 52°07' E 003°40'0 0.1
2017-Nov-12 16:49N 52°07' E 003°40'0 0.0
2017-Nov-12 13:04N 52°08' E 003°40'0 0.0
2017-Nov-12 10:01N 52°08' E 003°40'0 0.0
2017-Nov-11 18:21N 52°08' E 003°40'0 0.0
2017-Nov-11 05:03N 52°08' E 003°40'0 0.0
2017-Nov-11 04:39N 52°08' E 003°40'0 0.2
2017-Nov-11 04:27N 52°08' E 003°40'0 0.0
2017-Nov-11 03:57N 52°08' E 003°40'0 0.0
2017-Nov-11 03:30N 52°08' E 003°40'0 0.0
2017-Nov-11 03:00N 52°08' E 003°40'0 0.0
2017-Nov-11 02:15N 52°08' E 003°40'0 0.1
2017-Nov-11 02:00N 52°08' E 003°40'0 0.0
2017-Nov-11 01:31N 52°08' E 003°40'0 0.0
2017-Nov-10 14:00N 52°08' E 003°39'0 0.1
2017-Nov-10 12:14N 52°08' E 003°40'0 0.1
2017-Nov-10 11:56N 52°08' E 003°40'0 0.1
2017-Nov-10 11:29N 52°08' E 003°40'0 0.1
2017-Nov-10 10:59N 52°08' E 003°40'0 0.0
2017-Nov-10 10:23N 52°08' E 003°40'0 0.0
2017-Nov-10 09:59N 52°08' E 003°40'0 0.0
2017-Nov-10 09:29N 52°08' E 003°40'  

Dump ship's entire track history